Time;durP1;ratioP1;P1;durP2;ratioP2;P2;SDS_P1;SDS_P2;PMS_P1;PMS_P2;Temp;Humidity;BMP_temperature;BMP_pressure;BME280_temperature;BME280_humidity;BME280_pressure;Samples;Min_cycle;Max_cycle;Signal;HPM_P1;HPM_P2
2021/06/04 00:01:07;;;;;;;23.50;16.10;;;18.20;99.90;;;;;;5069425;28;20245;-73
2021/06/04 00:03:34;;;;;;;28.33;17.17;;;18.20;99.90;;;;;;5057577;28;20196;-74
2021/06/04 00:06:00;;;;;;;30.73;16.73;;;18.30;99.90;;;;;;5066395;28;20199;-74
2021/06/04 00:08:27;;;;;;;27.93;17.03;;;18.30;99.90;;;;;;5068587;28;20303;-73
2021/06/04 00:10:56;;;;;;;28.33;17.97;;;18.40;99.90;;;;;;5051595;28;20342;-74
2021/06/04 00:13:30;;;;;;;28.53;16.93;;;18.30;99.90;;;;;;5060896;28;20286;-74
2021/06/04 00:15:59;;;;;;;31.80;17.20;;;18.30;99.90;;;;;;5055364;28;20667;-74
2021/06/04 00:18:29;;;;;;;34.13;18.70;;;18.20;99.90;;;;;;5067414;28;20291;-74
2021/06/04 00:20:55;;;;;;;31.50;19.30;;;18.30;99.90;;;;;;5073428;28;20287;-73
2021/06/04 00:23:22;;;;;;;30.27;18.87;;;18.10;99.90;;;;;;5064985;28;20342;-73
2021/06/04 00:25:48;;;;;;;28.47;18.13;;;18.10;99.90;;;;;;5073416;28;20195;-74
2021/06/04 00:28:15;;;;;;;28.40;17.93;;;18.00;99.90;;;;;;5070028;28;20192;-74
2021/06/04 00:30:42;;;;;;;29.93;18.97;;;17.90;99.90;;;;;;5065982;28;20648;-73
2021/06/04 00:33:09;;;;;;;36.77;19.00;;;17.70;99.90;;;;;;5062654;28;20192;-73
2021/06/04 00:35:38;;;;;;;30.30;18.20;;;17.50;99.90;;;;;;5054931;28;20647;-73
2021/06/04 00:38:05;;;;;;;33.20;17.97;;;17.60;99.90;;;;;;5053525;28;20196;-73
2021/06/04 00:40:37;;;;;;;28.43;18.03;;;17.70;99.90;;;;;;5058851;28;20290;-73
2021/06/04 00:43:03;;;;;;;30.87;17.80;;;17.80;99.90;;;;;;5068261;28;20216;-73
2021/06/04 00:45:33;;;;;;;29.03;16.43;;;17.90;99.90;;;;;;5068611;28;20214;-73
2021/06/04 00:47:59;;;;;;;26.83;16.57;;;17.90;99.90;;;;;;5054224;28;20590;-74
2021/06/04 00:50:32;;;;;;;28.30;16.40;;;17.70;99.90;;;;;;5071627;28;20720;-74
2021/06/04 00:53:01;;;;;;;27.83;17.23;;;17.60;99.90;;;;;;5063021;28;20326;-73
2021/06/04 00:55:27;;;;;;;24.97;16.13;;;17.40;99.90;;;;;;5060202;28;20223;-73
2021/06/04 00:57:54;;;;;;;27.43;16.67;;;17.30;99.90;;;;;;5061910;28;20202;-73
2021/06/04 01:00:24;;;;;;;26.33;16.13;;;17.40;99.90;;;;;;5073769;28;20710;-73
2021/06/04 01:02:52;;;;;;;29.03;17.13;;;17.40;99.90;;;;;;5062334;28;20220;-73
2021/06/04 01:05:19;;;;;;;30.30;17.87;;;17.40;99.90;;;;;;5063675;28;20551;-73
2021/06/04 01:08:12;;;;;;;29.07;17.07;;;17.40;99.90;;;;;;5068588;28;20224;-74
2021/06/04 01:11:04;;;;;;;29.90;16.87;;;17.60;99.90;;;;;;5049430;28;20188;-73
2021/06/04 01:13:37;;;;;;;31.40;17.47;;;17.80;99.90;;;;;;5057646;28;20249;-73
2021/06/04 01:16:10;;;;;;;31.57;17.63;;;17.80;99.90;;;;;;5065193;28;20300;-73
2021/06/04 01:19:00;;;;;;;28.57;17.30;;;17.80;99.90;;;;;;5039158;28;20216;-73
2021/06/04 01:21:36;;;;;;;23.87;16.47;;;17.80;99.90;;;;;;5047571;28;20282;-73
2021/06/04 01:24:17;;;;;;;29.03;16.03;;;17.90;99.90;;;;;;5052416;28;20215;-74
2021/06/04 01:26:50;;;;;;;28.30;15.53;;;17.90;99.90;;;;;;5049438;28;20319;-74
2021/06/04 01:29:22;;;;;;;27.50;15.00;;;17.90;99.90;;;;;;5053090;28;20273;-73
2021/06/04 01:31:52;;;;;;;22.33;14.47;;;17.80;99.90;;;;;;5053375;28;20193;-73
2021/06/04 01:34:23;;;;;;;22.20;14.23;;;17.70;99.90;;;;;;5052634;28;20196;-73
2021/06/04 01:36:54;;;;;;;23.83;14.03;;;17.70;99.90;;;;;;5052892;28;20545;-74
2021/06/04 01:39:24;;;;;;;21.60;13.83;;;17.70;99.90;;;;;;5052500;28;20710;-73
2021/06/04 01:41:53;;;;;;;22.67;13.20;;;17.70;99.90;;;;;;5047363;28;20247;-73
2021/06/04 01:44:24;;;;;;;20.33;12.77;;;17.70;99.90;;;;;;5052926;28;20199;-73
2021/06/04 01:47:02;;;;;;;23.20;12.33;;;17.60;99.90;;;;;;5050623;28;20200;-74
2021/06/04 01:49:34;;;;;;;24.83;12.13;;;17.50;99.90;;;;;;5048684;28;20196;-73
2021/06/04 01:52:07;;;;;;;25.13;12.90;;;17.40;99.90;;;;;;5048030;28;20722;-73
2021/06/04 01:54:41;;;;;;;24.27;14.00;;;17.30;99.90;;;;;;5049390;28;20196;-74
2021/06/04 01:57:13;;;;;;;23.10;12.53;;;17.30;99.90;;;;;;5049687;28;20641;-73
2021/06/04 01:59:45;;;;;;;20.33;12.53;;;17.40;99.90;;;;;;5050749;28;20188;-74
2021/06/04 02:02:12;;;;;;;28.43;14.77;;;17.30;99.90;;;;;;5049419;28;20310;-73
2021/06/04 02:04:43;;;;;;;22.53;14.10;;;17.40;99.90;;;;;;5050258;28;20196;-74
2021/06/04 02:07:13;;;;;;;22.73;14.60;;;17.30;99.90;;;;;;5047526;28;20283;-74
2021/06/04 02:09:39;;;;;;;21.03;13.40;;;17.30;99.90;;;;;;5049041;28;20326;-73
2021/06/04 02:12:10;;;;;;;21.30;14.13;;;17.20;99.90;;;;;;5049126;28;20647;-73
2021/06/04 02:14:40;;;;;;;20.73;13.23;;;17.20;99.90;;;;;;5047778;28;20215;-73
2021/06/04 02:17:26;;;;;;;21.57;12.80;;;17.30;99.90;;;;;;5048068;28;20575;-73
2021/06/04 02:20:02;;;;;;;24.87;14.93;;;17.40;99.90;;;;;;5048387;28;20270;-73
2021/06/04 02:22:32;;;;;;;19.50;12.47;;;17.60;99.90;;;;;;5047893;28;20270;-75
2021/06/04 02:25:08;;;;;;;21.77;14.40;;;17.50;99.90;;;;;;5048196;28;20555;-74
2021/06/04 02:27:40;;;;;;;27.50;13.93;;;17.30;99.90;;;;;;5049460;28;20219;-73
2021/06/04 02:30:15;;;;;;;26.60;14.47;;;17.20;99.90;;;;;;5048788;28;20196;-73
2021/06/04 02:32:47;;;;;;;26.30;14.87;;;17.10;99.90;;;;;;5047869;28;20708;-73
2021/06/04 02:35:24;;;;;;;24.07;15.43;;;17.10;99.90;;;;;;5050398;28;20282;-73
2021/06/04 02:37:54;;;;;;;24.67;14.37;;;17.00;99.90;;;;;;5047779;28;20231;-73
2021/06/04 02:40:27;;;;;;;24.00;14.10;;;16.90;99.90;;;;;;5051251;28;20849;-74
2021/06/04 02:42:58;;;;;;;23.33;14.17;;;16.70;99.90;;;;;;5052440;28;20238;-73
2021/06/04 02:45:29;;;;;;;21.63;13.87;;;16.60;99.90;;;;;;5053488;28;20287;-73
2021/06/04 02:47:57;;;;;;;28.67;14.90;;;16.70;99.90;;;;;;5054677;28;20208;-73
2021/06/04 02:50:29;;;;;;;25.80;14.47;;;16.70;99.90;;;;;;5055692;28;20294;-74
2021/06/04 02:53:17;;;;;;;28.67;16.60;;;16.70;99.90;;;;;;5054196;28;20207;-74
2021/06/04 02:56:05;;;;;;;31.10;15.97;;;16.70;99.90;;;;;;5055307;28;20255;-73
2021/06/04 02:58:33;;;;;;;30.43;18.33;;;16.70;99.90;;;;;;5054732;28;20196;-74
2021/06/04 03:00:59;;;;;;;30.63;18.77;;;16.80;99.90;;;;;;5056632;28;20188;-74
2021/06/04 03:03:26;;;;;;;30.07;18.37;;;16.90;99.90;;;;;;5055281;28;20287;-74
2021/06/04 03:05:53;;;;;;;32.50;17.97;;;16.80;99.90;;;;;;5054273;28;20195;-74
2021/06/04 03:08:21;;;;;;;31.27;18.00;;;16.70;99.90;;;;;;5055218;28;20287;-74
2021/06/04 03:10:50;;;;;;;28.60;17.00;;;16.70;99.90;;;;;;5056663;28;20200;-72
2021/06/04 03:13:20;;;;;;;26.20;16.37;;;16.60;99.90;;;;;;5056650;28;20786;-73
2021/06/04 03:15:50;;;;;;;30.67;18.03;;;16.60;99.90;;;;;;5053289;28;20192;-73
2021/06/04 03:18:19;;;;;;;26.70;17.23;;;16.60;99.90;;;;;;5055462;28;20295;-74
2021/06/04 03:20:48;;;;;;;33.97;18.60;;;16.70;99.90;;;;;;5053298;28;20250;-73
2021/06/04 03:23:18;;;;;;;29.77;17.60;;;16.50;99.90;;;;;;5055486;28;20220;-73
2021/06/04 03:25:50;;;;;;;28.30;16.70;;;16.30;99.90;;;;;;5053853;28;20224;-73
2021/06/04 03:28:19;;;;;;;30.30;17.57;;;16.40;99.90;;;;;;5053151;28;20654;-73
2021/06/04 03:30:48;;;;;;;29.67;17.43;;;16.50;99.90;;;;;;5052447;28;20204;-73
2021/06/04 03:33:17;;;;;;;32.10;18.60;;;16.50;99.90;;;;;;5052807;28;20254;-73
2021/06/04 03:35:44;;;;;;;29.83;18.10;;;16.50;99.90;;;;;;5052458;28;20306;-73
2021/06/04 03:38:12;;;;;;;33.47;17.97;;;16.40;99.90;;;;;;5053312;28;20625;-73
2021/06/04 03:40:39;;;;;;;35.13;17.83;;;16.40;99.90;;;;;;5052001;28;20212;-73
2021/06/04 03:43:08;;;;;;;28.53;17.53;;;16.40;99.90;;;;;;5051442;28;20327;-73
2021/06/04 03:45:37;;;;;;;42.07;19.13;;;16.50;99.90;;;;;;5052167;28;20220;-73
2021/06/04 03:48:08;;;;;;;36.37;18.23;;;16.50;99.90;;;;;;5051339;28;20283;-74
2021/06/04 03:50:35;;;;;;;28.37;17.67;;;16.60;99.90;;;;;;5051433;28;20278;-74
2021/06/04 03:53:05;;;;;;;30.20;18.27;;;16.60;99.90;;;;;;5055318;28;20275;-73
2021/06/04 03:55:31;;;;;;;30.00;18.57;;;16.60;99.90;;;;;;5051448;28;20714;-73
2021/06/04 03:57:58;;;;;;;32.10;18.20;;;16.50;99.90;;;;;;5051292;28;20201;-73
2021/06/04 04:00:28;;;;;;;27.37;17.40;;;16.60;99.90;;;;;;5051842;28;20407;-73
2021/06/04 04:02:56;;;;;;;30.10;17.97;;;16.70;99.90;;;;;;5051098;28;20228;-73
2021/06/04 04:05:25;;;;;;;38.63;17.97;;;16.70;99.90;;;;;;5052912;28;20288;-73
2021/06/04 04:07:52;;;;;;;29.97;17.43;;;16.80;99.90;;;;;;5052939;28;20192;-73
2021/06/04 04:10:22;;;;;;;30.53;16.87;;;17.00;99.90;;;;;;5052131;28;20204;-73
2021/06/04 04:12:49;;;;;;;28.37;16.33;;;17.20;99.90;;;;;;5051907;28;20265;-74
2021/06/04 04:15:17;;;;;;;33.93;17.83;;;17.40;99.90;;;;;;5051490;28;20551;-73
2021/06/04 04:17:44;;;;;;;29.30;16.27;;;17.50;99.90;;;;;;5051757;28;20519;-74
2021/06/04 04:20:13;;;;;;;29.80;16.73;;;17.50;99.90;;;;;;5050122;28;20283;-73
2021/06/04 04:22:41;;;;;;;29.93;17.13;;;17.60;99.90;;;;;;5051108;28;20673;-73
2021/06/04 04:25:09;;;;;;;28.17;15.23;;;17.60;99.90;;;;;;5052536;28;20334;-73
2021/06/04 04:27:35;;;;;;;27.43;15.93;;;17.70;99.90;;;;;;5050196;28;20605;-74
2021/06/04 04:30:02;;;;;;;27.43;14.83;;;17.80;99.90;;;;;;5051476;28;20201;-73
2021/06/04 04:32:28;;;;;;;25.37;14.30;;;17.90;99.90;;;;;;5052977;28;20289;-73
2021/06/04 04:34:55;;;;;;;24.17;13.77;;;18.00;99.90;;;;;;5050891;28;20240;-73
2021/06/04 04:37:22;;;;;;;28.27;14.37;;;18.10;99.90;;;;;;5051831;28;20200;-73
2021/06/04 04:39:50;;;;;;;25.50;13.37;;;18.30;99.90;;;;;;5052495;28;20290;-73
2021/06/04 04:42:19;;;;;;;21.57;13.63;;;18.50;99.90;;;;;;5050974;28;20302;-74
2021/06/04 04:44:46;;;;;;;27.43;13.67;;;18.60;99.90;;;;;;5054864;28;20196;-74
2021/06/04 04:47:15;;;;;;;23.30;14.00;;;18.70;99.90;;;;;;5052175;28;20204;-73
2021/06/04 04:49:41;;;;;;;21.33;12.80;;;18.80;99.90;;;;;;5047856;28;20192;-73
2021/06/04 04:52:11;;;;;;;26.43;13.40;;;18.90;99.90;;;;;;5058490;28;20291;-73
2021/06/04 04:54:38;;;;;;;28.53;13.57;;;18.90;99.90;;;;;;5056904;28;20196;-73
2021/06/04 04:57:07;;;;;;;27.70;13.83;;;19.30;99.90;;;;;;5055251;28;20192;-74
2021/06/04 04:59:34;;;;;;;20.83;12.60;;;19.70;99.90;;;;;;5049135;28;20212;-73
2021/06/04 05:02:01;;;;;;;25.27;13.07;;;19.90;99.90;;;;;;5049286;28;20665;-74
2021/06/04 05:04:27;;;;;;;22.67;13.47;;;20.00;99.90;;;;;;5052165;28;20286;-73
2021/06/04 05:06:54;;;;;;;23.03;13.80;;;20.20;99.90;;;;;;5051968;28;20257;-73
2021/06/04 05:09:21;;;;;;;23.63;13.97;;;20.40;99.90;;;;;;5053060;28;20284;-73
2021/06/04 05:11:47;;;;;;;25.27;14.27;;;20.70;99.90;;;;;;5051336;28;20278;-74
2021/06/04 05:14:16;;;;;;;18.90;12.73;;;21.10;99.90;;;;;;5050782;28;20279;-73
2021/06/04 05:16:42;;;;;;;23.20;13.27;;;21.50;99.90;;;;;;5048999;28;20275;-74
2021/06/04 05:19:09;;;;;;;23.27;13.32;;;21.80;99.90;;;;;;5046816;28;20643;-73
2021/06/04 05:21:36;;;;;;;27.02;13.60;;;22.20;99.90;;;;;;5048290;28;20694;-74
2021/06/04 05:24:04;;;;;;;21.50;13.25;;;22.50;99.90;;;;;;5050443;28;20261;-73
2021/06/04 05:26:31;;;;;;;25.08;14.57;;;22.80;99.90;;;;;;5051641;28;20283;-73
2021/06/04 05:28:58;;;;;;;21.45;13.52;;;23.00;99.90;;;;;;5051737;28;20192;-73
2021/06/04 05:31:26;;;;;;;21.48;13.23;;;22.90;99.90;;;;;;5052741;28;20777;-73
2021/06/04 05:33:54;;;;;;;25.00;13.95;;;22.70;99.90;;;;;;5052595;28;20200;-74
2021/06/04 05:36:26;;;;;;;23.42;14.48;;;22.50;99.90;;;;;;5053223;28;20223;-73
2021/06/04 05:38:52;;;;;;;24.02;16.30;;;22.30;99.90;;;;;;5053024;28;20271;-73
2021/06/04 05:41:20;;;;;;;28.75;16.17;;;21.80;99.90;;;;;;5052540;28;20295;-74
2021/06/04 05:43:48;;;;;;;27.50;16.33;;;21.70;99.90;;;;;;5052702;28;20769;-74
2021/06/04 05:46:17;;;;;;;27.23;16.25;;;21.40;99.90;;;;;;5052579;28;20204;-73
2021/06/04 05:48:45;;;;;;;26.60;15.77;;;21.40;99.90;;;;;;5052036;28;20204;-74
2021/06/04 05:51:16;;;;;;;21.92;15.30;;;21.30;99.90;;;;;;5052622;28;20288;-73
2021/06/04 05:53:42;;;;;;;29.10;16.50;;;21.40;99.90;;;;;;5052891;28;20203;-73
2021/06/04 05:56:11;;;;;;;28.60;16.50;;;21.10;99.90;;;;;;5052737;28;20219;-73
2021/06/04 05:58:38;;;;;;;33.10;17.08;;;20.80;99.90;;;;;;5052538;28;20662;-75
2021/06/04 06:01:08;;;;;;;27.10;15.70;;;20.80;99.90;;;;;;5052385;28;20189;-75
2021/06/04 06:03:37;;;;;;;27.77;16.53;;;20.80;99.90;;;;;;5052033;28;20308;-76
2021/06/04 06:06:06;;;;;;;27.70;16.70;;;21.00;99.90;;;;;;5052436;28;20283;-75
2021/06/04 06:08:33;;;;;;;36.77;17.13;;;20.90;99.90;;;;;;5052239;28;20604;-73
2021/06/04 06:10:59;;;;;;;29.73;16.40;;;20.80;99.90;;;;;;5052360;28;20231;-74
2021/06/04 06:13:26;;;;;;;36.53;16.67;;;20.80;99.90;;;;;;5051044;28;20845;-74
2021/06/04 06:15:53;;;;;;;29.70;17.03;;;20.60;99.90;;;;;;5049996;28;20193;-74
2021/06/04 06:18:21;;;;;;;28.23;17.13;;;20.60;99.90;;;;;;5050481;28;20278;-74
2021/06/04 06:20:48;;;;;;;28.60;16.83;;;20.50;99.90;;;;;;5052014;28;20192;-74
2021/06/04 06:23:27;;;;;;;27.77;16.17;;;20.90;99.90;;;;;;5050911;28;20684;-74
2021/06/04 06:25:57;;;;;;;33.70;14.82;;;21.90;99.90;;;;;;5052183;28;20245;-74
2021/06/04 06:28:26;;;;;;;26.30;14.93;;;23.50;99.90;;;;;;5051055;28;20646;-74
2021/06/04 06:30:53;;;;;;;32.63;16.23;;;25.20;99.90;;;;;;5051426;28;20291;-74
2021/06/04 06:33:20;;;;;;;25.70;16.52;;;26.20;99.90;;;;;;5051795;28;20287;-74
2021/06/04 06:35:49;;;;;;;27.30;16.48;;;27.00;99.90;;;;;;5051406;28;20561;-75
2021/06/04 06:38:18;;;;;;;27.17;18.08;;;27.50;99.90;;;;;;5051627;28;20193;-74
2021/06/04 06:40:45;;;;;;;30.85;17.60;;;27.50;99.90;;;;;;5051083;28;20244;-74
2021/06/04 06:43:12;;;;;;;32.72;18.02;;;28.50;99.90;;;;;;5052349;28;20243;-75
2021/06/04 06:45:39;;;;;;;29.02;17.48;;;29.80;99.90;;;;;;5052641;28;20192;-75
2021/06/04 06:48:06;;;;;;;27.33;18.48;;;29.40;99.90;;;;;;5052444;28;20192;-75
2021/06/04 06:50:35;;;;;;;24.83;17.50;;;28.30;99.90;;;;;;5052340;28;20287;-75
2021/06/04 06:53:06;;;;;;;25.00;17.15;;;30.00;99.90;;;;;;5051771;28;20283;-75
2021/06/04 06:55:34;;;;;;;24.60;18.15;;;32.10;99.90;;;;;;5052376;28;20195;-74
2021/06/04 06:58:01;;;;;;;30.73;18.00;;;32.50;99.90;;;;;;5049021;28;20287;-74
2021/06/04 07:00:33;;;;;;;25.85;17.67;;;31.70;99.90;;;;;;5051225;28;20267;-74
2021/06/04 07:03:00;;;;;;;27.25;17.98;;;30.20;99.90;;;;;;5051790;28;20269;-75
2021/06/04 07:05:28;;;;;;;28.13;16.90;;;30.90;99.90;;;;;;5052448;28;20325;-74
2021/06/04 07:07:55;;;;;;;22.83;16.35;;;31.30;99.90;;;;;;5052010;28;20637;-75
2021/06/04 07:10:25;;;;;;;24.33;16.73;;;32.10;99.90;;;;;;5052223;28;20287;-75
2021/06/04 07:12:52;;;;;;;24.15;16.35;;;32.30;99.90;;;;;;5051741;28;20300;-75
2021/06/04 07:15:20;;;;;;;22.05;16.85;;;32.80;99.90;;;;;;5051768;28;20283;-75
2021/06/04 07:17:47;;;;;;;24.38;16.10;;;32.70;99.90;;;;;;5051662;28;20192;-75
2021/06/04 07:20:17;;;;;;;25.02;16.60;;;32.60;99.90;;;;;;5050930;28;20188;-75
2021/06/04 07:22:44;;;;;;;24.92;17.83;;;31.20;99.90;;;;;;5050230;28;20243;-74
2021/06/04 07:25:15;;;;;;;28.23;16.42;;;30.40;99.90;;;;;;5051274;28;20216;-74
2021/06/04 07:27:41;;;;;;;26.95;16.63;;;29.30;99.90;;;;;;5055647;28;20200;-75
2021/06/04 07:30:12;;;;;;;30.00;18.02;;;29.80;99.90;;;;;;5055154;28;20216;-74
2021/06/04 07:32:39;;;;;;;27.88;16.35;;;30.10;99.90;;;;;;5050929;28;20196;-74
2021/06/04 07:35:09;;;;;;;26.08;17.70;;;30.80;99.90;;;;;;5054205;28;20291;-74
2021/06/04 07:37:36;;;;;;;31.65;17.52;;;30.00;99.90;;;;;;5054665;28;20275;-75
2021/06/04 07:40:05;;;;;;;27.05;16.35;;;30.30;99.90;;;;;;5054464;28;20292;-74
2021/06/04 07:42:31;;;;;;;25.35;16.08;;;29.80;99.90;;;;;;5054519;28;20215;-75
2021/06/04 07:44:58;;;;;;;25.75;16.83;;;29.80;99.90;;;;;;5047674;28;20197;-75
2021/06/04 07:47:26;;;;;;;25.58;15.65;;;29.80;99.90;;;;;;5035349;28;20196;-75
2021/06/04 07:49:52;;;;;;;26.15;15.57;;;30.70;99.90;;;;;;5048614;28;20670;-75
2021/06/04 07:52:18;;;;;;;32.72;16.60;;;31.20;99.90;;;;;;5053109;28;20637;-75
2021/06/04 07:54:45;;;;;;;22.77;14.55;;;31.00;99.90;;;;;;5053755;28;20192;-75
2021/06/04 07:57:11;;;;;;;26.65;16.15;;;31.70;99.90;;;;;;5052627;28;20350;-75
2021/06/04 07:59:37;;;;;;;25.35;14.00;;;32.70;99.90;;;;;;5053067;28;20272;-75
2021/06/04 08:02:04;;;;;;;26.55;14.18;;;33.20;99.90;;;;;;5050059;28;20219;-75
2021/06/04 08:04:32;;;;;;;24.85;13.95;;;33.60;99.90;;;;;;5049762;28;20247;-75
2021/06/04 08:06:58;;;;;;;25.40;13.50;;;34.30;99.90;;;;;;5052970;28;20197;-74
2021/06/04 08:09:25;;;;;;;21.13;13.77;;;34.40;99.90;;;;;;5054096;28;20287;-74
2021/06/04 08:11:57;;;;;;;23.48;13.27;;;34.00;99.90;;;;;;5054347;28;20665;-74
2021/06/04 08:14:26;;;;;;;25.65;14.27;;;34.10;99.90;;;;;;5054055;28;20239;-74
2021/06/04 08:16:54;;;;;;;23.73;11.77;;;34.20;99.90;;;;;;5053641;28;20603;-74
2021/06/04 08:19:21;;;;;;;18.95;11.35;;;34.60;99.90;;;;;;5054366;28;20192;-74
2021/06/04 08:21:53;;;;;;;18.00;11.90;;;34.70;99.90;;;;;;5054872;28;20192;-74
2021/06/04 08:24:22;;;;;;;19.00;12.60;;;33.80;99.90;;;;;;5051730;28;20247;-74
2021/06/04 08:26:51;;;;;;;20.02;13.00;;;34.10;99.90;;;;;;5053648;28;20194;-74
2021/06/04 08:29:18;;;;;;;21.02;12.38;;;34.70;99.90;;;;;;5054548;28;20283;-74
2021/06/04 08:31:44;;;;;;;23.60;11.48;;;34.60;99.90;;;;;;5053999;28;20283;-74
2021/06/04 08:34:12;;;;;;;19.25;9.65;;;34.70;99.90;;;;;;5054207;28;20192;-75
2021/06/04 08:36:41;;;;;;;16.75;9.60;;;34.20;99.90;;;;;;5053474;28;20725;-74
2021/06/04 08:39:11;;;;;;;16.35;10.18;;;33.60;99.90;;;;;;5053631;28;20224;-74
2021/06/04 08:41:43;;;;;;;18.85;8.70;;;33.40;99.90;;;;;;5054714;28;20272;-74
2021/06/04 08:44:31;;;;;;;12.68;5.93;;;33.90;99.90;;;;;;5054125;28;20615;-74
2021/06/04 08:47:01;;;;;;;7.80;5.60;;;32.90;99.90;;;;;;5053508;28;20215;-74
2021/06/04 08:49:37;;;;;;;10.10;5.03;;;31.90;99.90;;;;;;5053632;28;20228;-74
2021/06/04 08:52:20;;;;;;;8.20;5.10;;;31.80;99.90;;;;;;5053357;28;20193;-74
2021/06/04 08:54:55;;;;;;;9.10;5.85;;;32.00;99.90;;;;;;5053372;28;20630;-74
2021/06/04 08:57:36;;;;;;;6.65;5.22;;;32.00;99.90;;;;;;5053791;28;20659;-74
2021/06/04 09:00:07;;;;;;;9.93;5.85;;;32.90;99.90;;;;;;5053720;28;20207;-74
2021/06/04 09:02:39;;;;;;;10.20;7.05;;;33.00;99.90;;;;;;5053682;28;20224;-74
2021/06/04 09:05:11;;;;;;;12.05;7.35;;;32.30;99.90;;;;;;5053668;28;20184;-74
2021/06/04 09:07:42;;;;;;;9.43;8.18;;;32.70;99.90;;;;;;5053297;28;20333;-75
2021/06/04 09:10:15;;;;;;;11.65;7.35;;;33.20;99.90;;;;;;5053774;28;20212;-75
2021/06/04 09:12:48;;;;;;;13.35;10.73;;;32.70;99.90;;;;;;5053621;28;20206;-75
2021/06/04 09:15:18;;;;;;;17.35;11.38;;;32.40;99.90;;;;;;5053349;28;20773;-75
2021/06/04 09:17:53;;;;;;;19.42;13.27;;;32.60;99.90;;;;;;5053709;28;20196;-75
2021/06/04 09:20:31;;;;;;;18.55;12.95;;;32.60;99.90;;;;;;5053516;28;20287;-75
2021/06/04 09:23:03;;;;;;;16.75;13.32;;;32.80;99.90;;;;;;5053056;28;20243;-75
2021/06/04 09:25:33;;;;;;;22.08;15.85;;;32.80;99.90;;;;;;5053149;28;20665;-74
2021/06/04 09:28:33;;;;;;;21.17;16.30;;;32.40;99.90;;;;;;5048187;28;20255;-75
2021/06/04 09:31:17;;;;;;;21.42;15.45;;;32.30;99.90;;;;;;4999428;28;20289;-74
2021/06/04 09:33:47;;;;;;;19.70;14.13;;;32.50;99.90;;;;;;4991267;28;20489;-75
2021/06/04 09:36:16;;;;;;;18.55;14.68;;;32.70;99.90;;;;;;5027413;28;20265;-75
2021/06/04 09:38:45;;;;;;;22.10;15.20;;;33.20;99.90;;;;;;5052370;28;20216;-75
2021/06/04 09:41:35;;;;;;;26.30;14.48;;;33.60;99.90;;;;;;5052324;28;20196;-75
2021/06/04 09:44:10;;;;;;;23.02;14.98;;;33.50;99.90;;;;;;5051268;28;20323;-75
2021/06/04 09:46:41;;;;;;;21.30;13.63;;;32.60;99.90;;;;;;5052643;28;20191;-75
2021/06/04 09:49:08;;;;;;;18.60;13.73;;;32.60;99.90;;;;;;5052946;28;20196;-75
2021/06/04 09:51:38;;;;;;;20.55;14.85;;;32.50;99.90;;;;;;5052676;28;20279;-75
2021/06/04 09:54:25;;;;;;;24.33;15.25;;;32.00;99.90;;;;;;5052897;28;20325;-75
2021/06/04 09:57:06;;;;;;;19.25;15.52;;;31.20;99.90;;;;;;5052586;28;20188;-75
2021/06/04 09:59:33;;;;;;;23.95;17.52;;;31.00;99.90;;;;;;5052762;28;20199;-75
2021/06/04 10:01:59;;;;;;;28.80;19.42;;;30.50;99.90;;;;;;5052233;28;20283;-75
2021/06/04 10:04:30;;;;;;;19.20;15.80;;;30.10;99.90;;;;;;5052724;28;20228;-75
2021/06/04 10:07:03;;;;;;;20.75;16.67;;;30.70;99.90;;;;;;5052769;28;20311;-75
2021/06/04 10:09:38;;;;;;;21.05;16.88;;;31.30;99.90;;;;;;5052639;28;20207;-75
2021/06/04 10:12:15;;;;;;;28.52;17.45;;;31.60;99.90;;;;;;5052376;28;20283;-76
2021/06/04 10:14:49;;;;;;;19.73;16.63;;;32.10;99.90;;;;;;5052662;28;20203;-75
2021/06/04 10:17:59;;;;;;;22.15;16.83;;;32.50;99.90;;;;;;5052408;28;20249;-74
2021/06/04 10:20:40;;;;;;;24.80;17.42;;;32.00;99.90;;;;;;5052241;28;20733;-75
2021/06/04 10:23:21;;;;;;;22.45;16.63;;;31.90;99.90;;;;;;5052628;28;20315;-75
2021/06/04 10:25:55;;;;;;;21.95;17.63;;;32.30;99.90;;;;;;5052588;28;20242;-75
2021/06/04 10:28:38;;;;;;;23.75;18.35;;;32.30;99.90;;;;;;5052628;28;20231;-75
2021/06/04 10:31:26;;;;;;;22.17;17.60;;;32.70;99.90;;;;;;5052750;28;20226;-75
2021/06/04 10:34:01;;;;;;;25.40;19.00;;;32.60;99.90;;;;;;5050160;28;20755;-75
2021/06/04 10:36:32;;;;;;;24.92;19.90;;;32.80;99.90;;;;;;5052263;28;20299;-75
2021/06/04 10:39:06;;;;;;;29.77;19.05;;;33.00;99.90;;;;;;5052794;28;20206;-75
2021/06/04 10:41:40;;;;;;;23.35;17.88;;;33.90;99.90;;;;;;5052518;28;20231;-75
2021/06/04 10:44:19;;;;;;;23.67;18.27;;;34.10;99.90;;;;;;5052423;28;20219;-75
2021/06/04 10:46:53;;;;;;;25.30;17.10;;;33.20;99.90;;;;;;5052100;28;20204;-75
2021/06/04 10:49:41;;;;;;;27.10;19.85;;;33.60;99.90;;;;;;5052250;28;20227;-75
2021/06/04 10:52:16;;;;;;;22.60;17.65;;;33.10;99.90;;;;;;5052592;28;20287;-75
2021/06/04 10:54:53;;;;;;;26.88;19.27;;;32.20;99.90;;;;;;5052248;28;20222;-76
2021/06/04 10:57:26;;;;;;;27.65;18.70;;;32.70;99.90;;;;;;5051880;28;20616;-75
2021/06/04 10:59:58;;;;;;;26.15;20.20;;;33.00;99.90;;;;;;5051890;28;20184;-75
2021/06/04 11:02:33;;;;;;;26.20;21.02;;;32.70;99.90;;;;;;5055518;28;20196;-75
2021/06/04 11:05:11;;;;;;;25.45;19.02;;;32.80;99.90;;;;;;5055675;28;20215;-76
2021/06/04 11:07:42;;;;;;;21.92;18.48;;;32.80;99.90;;;;;;5055854;28;20199;-75
2021/06/04 11:10:17;;;;;;;23.33;16.70;;;33.10;99.90;;;;;;5056067;28;20283;-75
2021/06/04 11:13:02;;;;;;;21.83;18.48;;;33.90;99.90;;;;;;5055564;28;20242;-75
2021/06/04 11:15:44;;;;;;;24.45;17.77;;;34.90;99.90;;;;;;5056457;28;20203;-75
2021/06/04 11:18:15;;;;;;;22.42;18.15;;;35.20;99.90;;;;;;5055648;28;20201;-75
2021/06/04 11:20:48;;;;;;;24.00;17.05;;;34.60;99.90;;;;;;5055823;28;20284;-75
2021/06/04 11:23:27;;;;;;;21.02;16.88;;;32.80;99.90;;;;;;5055411;28;20238;-75
2021/06/04 11:25:57;;;;;;;22.00;17.55;;;32.40;99.90;;;;;;5054613;28;20204;-75
2021/06/04 11:28:37;;;;;;;23.73;17.20;;;33.10;99.90;;;;;;5055579;28;20243;-75
2021/06/04 11:31:09;;;;;;;25.65;19.45;;;33.60;99.90;;;;;;5055157;28;20196;-75
2021/06/04 11:33:40;;;;;;;23.15;17.92;;;33.90;99.90;;;;;;5055618;28;20228;-75
2021/06/04 11:36:11;;;;;;;21.88;15.38;;;33.50;99.90;;;;;;5055956;28;20196;-74
2021/06/04 11:38:42;;;;;;;19.30;14.60;;;34.10;99.90;;;;;;5055679;28;20228;-75
2021/06/04 11:41:17;;;;;;;18.48;15.23;;;34.10;99.90;;;;;;5055644;28;20302;-75
2021/06/04 11:43:46;;;;;;;17.45;13.90;;;34.00;99.90;;;;;;5055756;28;20374;-75
2021/06/04 11:46:18;;;;;;;16.52;13.65;;;33.20;99.90;;;;;;5055395;28;20196;-75
2021/06/04 11:49:00;;;;;;;16.83;12.55;;;32.90;99.90;;;;;;5055184;28;20196;-75
2021/06/04 11:51:33;;;;;;;16.42;13.30;;;32.10;99.90;;;;;;5055040;28;20661;-74
2021/06/04 11:54:24;;;;;;;16.33;14.10;;;31.80;99.90;;;;;;5054838;28;20279;-75
2021/06/04 11:56:58;;;;;;;16.40;13.07;;;31.50;99.90;;;;;;5055165;28;20246;-75
2021/06/04 11:59:57;;;;;;;17.13;13.20;;;30.30;99.90;;;;;;5054165;28;20203;-74
2021/06/04 12:02:41;;;;;;;20.63;15.00;;;29.20;99.90;;;;;;5050083;28;20193;-75
2021/06/04 12:05:29;;;;;;;22.25;15.05;;;29.10;99.90;;;;;;5054719;28;20262;-75
2021/06/04 12:08:32;;;;;;;19.50;14.35;;;29.70;99.90;;;;;;5052715;28;20220;-75
2021/06/04 12:11:34;;;;;;;21.02;15.75;;;29.40;99.90;;;;;;5035189;28;20203;-74
2021/06/04 12:14:19;;;;;;;18.65;16.08;;;29.00;99.90;;;;;;5033069;28;20279;-75
2021/06/04 12:17:06;;;;;;;21.13;15.85;;;29.00;99.90;;;;;;5045074;28;20220;-74
2021/06/04 12:19:36;;;;;;;19.33;15.30;;;28.50;99.90;;;;;;5054317;28;20282;-74
2021/06/04 12:22:09;;;;;;;19.38;16.15;;;28.00;99.90;;;;;;5054839;28;20265;-74
2021/06/04 12:24:54;;;;;;;19.83;16.85;;;27.60;99.90;;;;;;5054708;28;20219;-74
2021/06/04 12:28:03;;;;;;;18.23;15.57;;;27.20;99.90;;;;;;5054351;28;20196;-74
2021/06/04 12:31:04;;;;;;;24.13;16.45;;;26.80;99.90;;;;;;5052887;28;20196;-74
2021/06/04 12:33:52;;;;;;;20.70;17.08;;;26.90;99.90;;;;;;5021247;28;20278;-74
2021/06/04 12:36:53;;;;;;;26.05;18.52;;;26.80;99.90;;;;;;5054057;28;20219;-74
2021/06/04 12:39:52;;;;;;;23.00;17.85;;;26.50;99.90;;;;;;5054083;28;20191;-74
2021/06/04 12:42:39;;;;;;;20.38;16.98;;;26.50;99.90;;;;;;5054221;28;20200;-74
2021/06/04 12:45:23;;;;;;;20.73;16.35;;;26.30;99.90;;;;;;5036827;28;20207;-75
2021/06/04 12:47:53;;;;;;;25.25;16.48;;;25.90;99.90;;;;;;5046878;28;20196;-75
2021/06/04 12:50:25;;;;;;;22.48;17.15;;;25.50;99.90;;;;;;5054058;28;20612;-74
2021/06/04 12:53:08;;;;;;;19.63;15.93;;;25.30;99.90;;;;;;5053210;28;20291;-74